sensor_id;sensor_type;location;lat;lon;timestamp;pressure;altitude;pressure_sealevel;temperature;humidity
13800;BME280;6971;50.028;9.258;2022-07-29T00:03:08;99250.19;;;20.75;41.16
13800;BME280;6971;50.028;9.258;2022-07-29T00:08:09;99247.34;;;20.77;41.03
13800;BME280;6971;50.028;9.258;2022-07-29T00:13:10;99259.88;;;20.76;40.90
13800;BME280;6971;50.028;9.258;2022-07-29T00:18:11;99246.50;;;20.76;41.06
13800;BME280;6971;50.028;9.258;2022-07-29T00:23:11;99251.63;;;20.69;41.02
13800;BME280;6971;50.028;9.258;2022-07-29T00:28:12;99240.41;;;20.66;41.20
13800;BME280;6971;50.028;9.258;2022-07-29T00:33:14;99237.50;;;20.59;41.38
13800;BME280;6971;50.028;9.258;2022-07-29T00:38:18;99247.34;;;20.58;41.43
13800;BME280;6971;50.028;9.258;2022-07-29T00:43:20;99238.78;;;20.55;40.94
13800;BME280;6971;50.028;9.258;2022-07-29T00:48:21;99235.25;;;20.54;41.29
13800;BME280;6971;50.028;9.258;2022-07-29T00:53:23;99232.34;;;20.47;41.75
13800;BME280;6971;50.028;9.258;2022-07-29T00:58:24;99243.34;;;20.44;41.62
13800;BME280;6971;50.028;9.258;2022-07-29T01:03:26;99240.00;;;20.42;42.12
13800;BME280;6971;50.028;9.258;2022-07-29T01:08:27;99240.75;;;20.34;42.34
13800;BME280;6971;50.028;9.258;2022-07-29T01:13:29;99232.16;;;20.31;42.20
13800;BME280;6971;50.028;9.258;2022-07-29T01:18:40;99243.28;;;20.08;43.34
13800;BME280;6971;50.028;9.258;2022-07-29T01:29:36;99241.78;;;19.57;47.26
13800;BME280;6971;50.028;9.258;2022-07-29T01:34:53;99250.81;;;19.47;46.21
13800;BME280;6971;50.028;9.258;2022-07-29T01:39:57;99253.56;;;19.27;48.21
13800;BME280;6971;50.028;9.258;2022-07-29T01:50:27;99280.28;;;19.17;46.59
13800;BME280;6971;50.028;9.258;2022-07-29T01:55:34;99283.94;;;19.06;47.92
13800;BME280;6971;50.028;9.258;2022-07-29T02:00:38;99280.38;;;18.76;48.57
13800;BME280;6971;50.028;9.258;2022-07-29T02:05:42;99274.78;;;18.59;49.44
13800;BME280;6971;50.028;9.258;2022-07-29T02:10:45;99275.63;;;18.70;49.20
13800;BME280;6971;50.028;9.258;2022-07-29T02:15:49;99272.78;;;18.42;51.05
13800;BME280;6971;50.028;9.258;2022-07-29T02:20:54;99274.44;;;18.33;51.30
13800;BME280;6971;50.028;9.258;2022-07-29T02:25:57;99273.53;;;18.12;51.74
13800;BME280;6971;50.028;9.258;2022-07-29T02:31:02;99264.47;;;17.94;53.42
13800;BME280;6971;50.028;9.258;2022-07-29T02:36:04;99261.06;;;17.82;54.85
13800;BME280;6971;50.028;9.258;2022-07-29T02:41:09;99257.91;;;17.67;55.43
13800;BME280;6971;50.028;9.258;2022-07-29T02:46:25;99259.72;;;17.14;57.13
13800;BME280;6971;50.028;9.258;2022-07-29T02:51:36;99253.72;;;17.21;58.06
13800;BME280;6971;50.028;9.258;2022-07-29T02:56:40;99253.41;;;17.15;58.66
13800;BME280;6971;50.028;9.258;2022-07-29T03:01:43;99249.97;;;16.91;59.63
13800;BME280;6971;50.028;9.258;2022-07-29T03:06:46;99255.81;;;16.64;60.72
13800;BME280;6971;50.028;9.258;2022-07-29T03:11:47;99254.09;;;16.63;59.85
13800;BME280;6971;50.028;9.258;2022-07-29T03:16:49;99244.63;;;16.70;60.83
13800;BME280;6971;50.028;9.258;2022-07-29T03:21:52;99248.09;;;16.49;60.68
13800;BME280;6971;50.028;9.258;2022-07-29T03:26:55;99232.75;;;16.41;61.81
13800;BME280;6971;50.028;9.258;2022-07-29T03:31:57;99231.63;;;16.11;63.77
13800;BME280;6971;50.028;9.258;2022-07-29T03:36:59;99219.94;;;16.02;63.87
13800;BME280;6971;50.028;9.258;2022-07-29T03:42:00;99227.28;;;15.99;63.82
13800;BME280;6971;50.028;9.258;2022-07-29T03:47:02;99232.94;;;15.83;65.41
13800;BME280;6971;50.028;9.258;2022-07-29T03:52:05;99232.47;;;15.77;65.47
13800;BME280;6971;50.028;9.258;2022-07-29T03:57:08;99231.53;;;15.67;65.79
13800;BME280;6971;50.028;9.258;2022-07-29T04:02:12;99230.06;;;15.63;67.74
13800;BME280;6971;50.028;9.258;2022-07-29T04:07:14;99234.66;;;15.49;67.68
13800;BME280;6971;50.028;9.258;2022-07-29T04:12:15;99240.78;;;15.50;68.31
13800;BME280;6971;50.028;9.258;2022-07-29T04:17:16;99237.75;;;15.32;69.09
13800;BME280;6971;50.028;9.258;2022-07-29T04:22:18;99232.09;;;15.25;69.26
13800;BME280;6971;50.028;9.258;2022-07-29T04:27:19;99236.31;;;14.92;70.40
13800;BME280;6971;50.028;9.258;2022-07-29T04:32:20;99232.28;;;15.10;70.87
13800;BME280;6971;50.028;9.258;2022-07-29T04:37:21;99231.06;;;15.14;70.72
13800;BME280;6971;50.028;9.258;2022-07-29T04:42:22;99234.75;;;15.25;70.63
13800;BME280;6971;50.028;9.258;2022-07-29T04:47:23;99227.84;;;15.34;71.11
13800;BME280;6971;50.028;9.258;2022-07-29T04:52:25;99223.28;;;15.47;71.26
13800;BME280;6971;50.028;9.258;2022-07-29T04:57:26;99223.06;;;15.73;70.56
13800;BME280;6971;50.028;9.258;2022-07-29T05:02:27;99212.53;;;16.06;69.62
13800;BME280;6971;50.028;9.258;2022-07-29T05:07:28;99216.84;;;16.30;69.96
13800;BME280;6971;50.028;9.258;2022-07-29T05:12:29;99214.72;;;16.45;69.67
13800;BME280;6971;50.028;9.258;2022-07-29T05:17:30;99207.44;;;16.58;69.20
13800;BME280;6971;50.028;9.258;2022-07-29T05:22:31;99207.94;;;16.85;68.34
13800;BME280;6971;50.028;9.258;2022-07-29T05:27:32;99211.59;;;17.05;67.71
13800;BME280;6971;50.028;9.258;2022-07-29T05:32:33;99213.13;;;17.29;66.79
13800;BME280;6971;50.028;9.258;2022-07-29T05:37:34;99205.13;;;17.51;67.67
13800;BME280;6971;50.028;9.258;2022-07-29T05:42:35;99213.31;;;17.69;66.08
13800;BME280;6971;50.028;9.258;2022-07-29T05:47:37;99220.06;;;17.73;65.45
13800;BME280;6971;50.028;9.258;2022-07-29T05:52:38;99224.72;;;17.81;64.59
13800;BME280;6971;50.028;9.258;2022-07-29T05:57:39;99229.41;;;17.88;64.31
13800;BME280;6971;50.028;9.258;2022-07-29T06:02:40;99228.56;;;17.98;63.12
13800;BME280;6971;50.028;9.258;2022-07-29T06:07:41;99231.88;;;18.11;65.33
13800;BME280;6971;50.028;9.258;2022-07-29T06:12:42;99240.03;;;18.20;62.33
13800;BME280;6971;50.028;9.258;2022-07-29T06:17:42;99245.94;;;18.23;62.94
13800;BME280;6971;50.028;9.258;2022-07-29T06:22:44;99241.44;;;18.34;63.47
13800;BME280;6971;50.028;9.258;2022-07-29T06:27:45;99242.19;;;18.56;60.48
13800;BME280;6971;50.028;9.258;2022-07-29T06:32:47;99250.34;;;18.74;62.96
13800;BME280;6971;50.028;9.258;2022-07-29T06:37:48;99252.31;;;18.91;61.78
13800;BME280;6971;50.028;9.258;2022-07-29T06:42:50;99251.44;;;19.01;62.91
13800;BME280;6971;50.028;9.258;2022-07-29T06:47:50;99253.72;;;19.05;58.72
13800;BME280;6971;50.028;9.258;2022-07-29T06:52:52;99246.41;;;19.08;58.19
13800;BME280;6971;50.028;9.258;2022-07-29T06:57:53;99254.28;;;19.19;53.32
13800;BME280;6971;50.028;9.258;2022-07-29T07:02:55;99249.22;;;19.06;57.31
13800;BME280;6971;50.028;9.258;2022-07-29T07:07:55;99254.16;;;19.11;59.12
13800;BME280;6971;50.028;9.258;2022-07-29T07:13:15;99254.81;;;19.03;59.16
13800;BME280;6971;50.028;9.258;2022-07-29T07:18:18;99257.78;;;19.20;58.26
13800;BME280;6971;50.028;9.258;2022-07-29T07:23:20;99265.88;;;19.48;52.97
13800;BME280;6971;50.028;9.258;2022-07-29T07:28:20;99273.47;;;19.90;55.22
13800;BME280;6971;50.028;9.258;2022-07-29T07:33:21;99274.63;;;20.44;54.02
13800;BME280;6971;50.028;9.258;2022-07-29T07:38:22;99286.44;;;20.69;50.64
13800;BME280;6971;50.028;9.258;2022-07-29T07:43:23;99273.53;;;21.01;51.59
13800;BME280;6971;50.028;9.258;2022-07-29T07:48:24;99281.13;;;20.88;52.39
13800;BME280;6971;50.028;9.258;2022-07-29T07:53:25;99281.59;;;21.09;50.73
13800;BME280;6971;50.028;9.258;2022-07-29T07:58:26;99289.19;;;22.80;46.30
13800;BME280;6971;50.028;9.258;2022-07-29T08:03:27;99289.25;;;24.35;41.26
13800;BME280;6971;50.028;9.258;2022-07-29T08:08:28;99292.09;;;24.97;39.25
13800;BME280;6971;50.028;9.258;2022-07-29T08:13:29;99294.00;;;25.11;38.93
13800;BME280;6971;50.028;9.258;2022-07-29T08:18:31;99292.03;;;24.50;41.05
13800;BME280;6971;50.028;9.258;2022-07-29T08:23:32;99293.47;;;24.37;39.90
13800;BME280;6971;50.028;9.258;2022-07-29T08:28:40;99292.25;;;25.19;39.47
13800;BME280;6971;50.028;9.258;2022-07-29T08:33:59;99294.03;;;25.80;38.77
13800;BME280;6971;50.028;9.258;2022-07-29T08:39:02;99292.53;;;26.81;36.54
13800;BME280;6971;50.028;9.258;2022-07-29T08:44:03;99283.44;;;25.40;39.00
13800;BME280;6971;50.028;9.258;2022-07-29T08:49:04;99290.75;;;26.00;37.86
13800;BME280;6971;50.028;9.258;2022-07-29T08:54:08;99296.16;;;26.00;38.19
13800;BME280;6971;50.028;9.258;2022-07-29T08:59:09;99292.50;;;26.38;37.26
13800;BME280;6971;50.028;9.258;2022-07-29T09:04:12;99299.38;;;26.77;36.18
13800;BME280;6971;50.028;9.258;2022-07-29T09:09:14;99295.97;;;27.34;36.24
13800;BME280;6971;50.028;9.258;2022-07-29T09:14:15;99311.34;;;28.33;33.80
13800;BME280;6971;50.028;9.258;2022-07-29T09:19:23;99307.22;;;28.01;35.46
13800;BME280;6971;50.028;9.258;2022-07-29T09:24:37;99290.88;;;29.40;33.30
13800;BME280;6971;50.028;9.258;2022-07-29T09:29:39;99294.22;;;27.83;35.00
13800;BME280;6971;50.028;9.258;2022-07-29T09:34:40;99285.94;;;28.40;34.56
13800;BME280;6971;50.028;9.258;2022-07-29T09:39:41;99282.84;;;27.95;35.50
13800;BME280;6971;50.028;9.258;2022-07-29T09:44:48;99276.91;;;28.20;34.58
13800;BME280;6971;50.028;9.258;2022-07-29T09:49:58;99276.59;;;28.57;33.64
13800;BME280;6971;50.028;9.258;2022-07-29T09:55:06;99270.03;;;28.93;34.43
13800;BME280;6971;50.028;9.258;2022-07-29T10:05:25;99274.19;;;27.42;37.30
13800;BME280;6971;50.028;9.258;2022-07-29T10:10:28;99265.44;;;27.18;38.86
13800;BME280;6971;50.028;9.258;2022-07-29T10:15:31;99270.91;;;27.25;36.68
13800;BME280;6971;50.028;9.258;2022-07-29T10:20:33;99263.72;;;27.10;37.33
13800;BME280;6971;50.028;9.258;2022-07-29T10:25:35;99265.63;;;27.74;35.94
13800;BME280;6971;50.028;9.258;2022-07-29T10:30:37;99260.69;;;27.78;36.21
13800;BME280;6971;50.028;9.258;2022-07-29T10:36:00;99264.56;;;27.68;37.75
13800;BME280;6971;50.028;9.258;2022-07-29T10:41:16;99264.31;;;29.82;34.12
13800;BME280;6971;50.028;9.258;2022-07-29T10:46:28;99259.16;;;29.61;33.86
13800;BME280;6971;50.028;9.258;2022-07-29T10:56:51;99255.72;;;29.86;33.57
13800;BME280;6971;50.028;9.258;2022-07-29T11:01:53;99250.81;;;28.95;35.40
13800;BME280;6971;50.028;9.258;2022-07-29T11:12:02;99247.34;;;28.25;36.09
13800;BME280;6971;50.028;9.258;2022-07-29T11:17:13;99247.50;;;28.10;36.34
13800;BME280;6971;50.028;9.258;2022-07-29T11:22:34;99248.53;;;29.39;35.33
13800;BME280;6971;50.028;9.258;2022-07-29T11:27:36;99246.16;;;29.76;34.83
13800;BME280;6971;50.028;9.258;2022-07-29T11:32:43;99254.91;;;29.85;33.48
13800;BME280;6971;50.028;9.258;2022-07-29T11:48:52;99244.91;;;30.96;32.53
13800;BME280;6971;50.028;9.258;2022-07-29T11:53:53;99237.44;;;30.91;34.11
13800;BME280;6971;50.028;9.258;2022-07-29T11:59:05;99227.03;;;30.03;35.83
13800;BME280;6971;50.028;9.258;2022-07-29T12:04:07;99216.00;;;29.18;36.40
13800;BME280;6971;50.028;9.258;2022-07-29T12:09:10;99209.88;;;29.43;36.34
13800;BME280;6971;50.028;9.258;2022-07-29T12:14:27;99201.81;;;29.96;35.79
13800;BME280;6971;50.028;9.258;2022-07-29T12:19:28;99199.94;;;30.35;34.72
13800;BME280;6971;50.028;9.258;2022-07-29T12:24:44;99193.50;;;30.87;33.96
13800;BME280;6971;50.028;9.258;2022-07-29T12:30:04;99203.28;;;31.39;33.52
13800;BME280;6971;50.028;9.258;2022-07-29T12:35:08;99194.63;;;30.47;34.53
13800;BME280;6971;50.028;9.258;2022-07-29T12:40:12;99186.06;;;30.05;36.17
13800;BME280;6971;50.028;9.258;2022-07-29T12:45:14;99189.13;;;29.76;35.88
13800;BME280;6971;50.028;9.258;2022-07-29T12:50:17;99181.78;;;29.11;38.00
13800;BME280;6971;50.028;9.258;2022-07-29T12:55:44;99179.25;;;29.23;36.75
13800;BME280;6971;50.028;9.258;2022-07-29T13:00:59;99162.91;;;29.56;36.40
13800;BME280;6971;50.028;9.258;2022-07-29T13:06:00;99163.34;;;29.53;37.36
13800;BME280;6971;50.028;9.258;2022-07-29T13:11:00;99168.72;;;30.06;35.46
13800;BME280;6971;50.028;9.258;2022-07-29T13:16:06;99165.06;;;29.21;37.31
13800;BME280;6971;50.028;9.258;2022-07-29T13:21:13;99155.34;;;29.65;35.38
13800;BME280;6971;50.028;9.258;2022-07-29T13:26:14;99145.63;;;28.09;37.77
13800;BME280;6971;50.028;9.258;2022-07-29T13:31:19;99144.69;;;29.64;36.04
13800;BME280;6971;50.028;9.258;2022-07-29T13:36:21;99140.66;;;29.14;36.01
13800;BME280;6971;50.028;9.258;2022-07-29T13:41:22;99145.53;;;29.64;35.60
13800;BME280;6971;50.028;9.258;2022-07-29T13:46:23;99135.78;;;29.50;36.35
13800;BME280;6971;50.028;9.258;2022-07-29T13:51:24;99136.38;;;30.37;33.83
13800;BME280;6971;50.028;9.258;2022-07-29T13:56:25;99125.75;;;29.96;35.33
13800;BME280;6971;50.028;9.258;2022-07-29T14:01:27;99118.47;;;29.37;36.19
13800;BME280;6971;50.028;9.258;2022-07-29T14:06:28;99114.47;;;29.53;36.69
13800;BME280;6971;50.028;9.258;2022-07-29T14:11:29;99107.53;;;28.85;38.45
13800;BME280;6971;50.028;9.258;2022-07-29T14:16:46;99109.88;;;27.65;39.83
13800;BME280;6971;50.028;9.258;2022-07-29T14:21:48;99118.56;;;28.09;39.47
13800;BME280;6971;50.028;9.258;2022-07-29T14:26:49;99121.41;;;27.80;39.85
13800;BME280;6971;50.028;9.258;2022-07-29T14:31:50;99126.72;;;27.60;40.72
13800;BME280;6971;50.028;9.258;2022-07-29T14:36:52;99145.66;;;27.18;41.81
13800;BME280;6971;50.028;9.258;2022-07-29T14:41:56;99200.25;;;25.67;50.71
13800;BME280;6971;50.028;9.258;2022-07-29T14:47:03;99212.88;;;22.31;75.11
13800;BME280;6971;50.028;9.258;2022-07-29T14:52:04;99225.09;;;20.40;92.02
13800;BME280;6971;50.028;9.258;2022-07-29T14:57:05;99259.50;;;20.53;98.51
13800;BME280;6971;50.028;9.258;2022-07-29T15:02:06;99262.91;;;19.99;95.70
13800;BME280;6971;50.028;9.258;2022-07-29T15:07:07;99239.84;;;19.60;94.79
13800;BME280;6971;50.028;9.258;2022-07-29T15:12:08;99229.84;;;19.52;93.66
13800;BME280;6971;50.028;9.258;2022-07-29T15:17:10;99235.25;;;19.80;92.89
13800;BME280;6971;50.028;9.258;2022-07-29T15:22:11;99241.84;;;19.86;97.69
13800;BME280;6971;50.028;9.258;2022-07-29T15:27:15;99255.25;;;19.76;96.65
13800;BME280;6971;50.028;9.258;2022-07-29T15:32:16;99288.75;;;19.70;95.47
13800;BME280;6971;50.028;9.258;2022-07-29T15:37:17;99316.63;;;19.48;95.34
13800;BME280;6971;50.028;9.258;2022-07-29T15:42:18;99326.91;;;19.42;97.26
13800;BME280;6971;50.028;9.258;2022-07-29T15:47:19;99314.97;;;18.87;100.00
13800;BME280;6971;50.028;9.258;2022-07-29T15:52:20;99315.47;;;18.51;100.00
13800;BME280;6971;50.028;9.258;2022-07-29T15:57:22;99315.72;;;18.38;100.00
13800;BME280;6971;50.028;9.258;2022-07-29T16:02:24;99312.72;;;18.73;100.00
13800;BME280;6971;50.028;9.258;2022-07-29T16:07:25;99316.13;;;18.03;100.00
13800;BME280;6971;50.028;9.258;2022-07-29T16:12:26;99339.91;;;18.47;100.00
13800;BME280;6971;50.028;9.258;2022-07-29T16:17:27;99328.91;;;18.30;100.00
13800;BME280;6971;50.028;9.258;2022-07-29T16:22:28;99331.84;;;18.27;100.00
13800;BME280;6971;50.028;9.258;2022-07-29T16:27:30;99324.00;;;18.04;100.00
13800;BME280;6971;50.028;9.258;2022-07-29T16:32:30;99308.81;;;17.95;100.00
13800;BME280;6971;50.028;9.258;2022-07-29T16:37:32;99284.25;;;18.32;100.00
13800;BME280;6971;50.028;9.258;2022-07-29T16:42:35;99283.72;;;18.38;100.00
13800;BME280;6971;50.028;9.258;2022-07-29T16:47:35;99276.00;;;18.35;100.00
13800;BME280;6971;50.028;9.258;2022-07-29T16:52:36;99267.53;;;18.10;100.00
13800;BME280;6971;50.028;9.258;2022-07-29T16:57:38;99256.84;;;18.10;100.00
13800;BME280;6971;50.028;9.258;2022-07-29T17:02:38;99266.47;;;18.43;100.00
13800;BME280;6971;50.028;9.258;2022-07-29T17:07:39;99272.03;;;17.88;100.00
13800;BME280;6971;50.028;9.258;2022-07-29T17:12:40;99257.97;;;17.86;100.00
13800;BME280;6971;50.028;9.258;2022-07-29T17:17:41;99253.47;;;18.08;100.00
13800;BME280;6971;50.028;9.258;2022-07-29T17:22:42;99250.94;;;17.75;100.00
13800;BME280;6971;50.028;9.258;2022-07-29T17:27:43;99266.84;;;18.18;100.00
13800;BME280;6971;50.028;9.258;2022-07-29T17:32:45;99277.25;;;18.00;100.00
13800;BME280;6971;50.028;9.258;2022-07-29T17:37:46;99289.25;;;17.53;100.00
13800;BME280;6971;50.028;9.258;2022-07-29T17:42:46;99293.94;;;17.92;100.00
13800;BME280;6971;50.028;9.258;2022-07-29T17:47:47;99308.41;;;17.68;100.00
13800;BME280;6971;50.028;9.258;2022-07-29T17:52:48;99335.41;;;17.85;100.00
13800;BME280;6971;50.028;9.258;2022-07-29T17:57:49;99320.19;;;17.97;100.00
13800;BME280;6971;50.028;9.258;2022-07-29T18:02:50;99318.66;;;18.04;100.00
13800;BME280;6971;50.028;9.258;2022-07-29T18:07:51;99326.59;;;17.84;100.00
13800;BME280;6971;50.028;9.258;2022-07-29T18:12:52;99304.66;;;17.81;100.00
13800;BME280;6971;50.028;9.258;2022-07-29T18:17:54;99325.25;;;18.31;100.00
13800;BME280;6971;50.028;9.258;2022-07-29T18:22:55;99339.44;;;18.00;100.00
13800;BME280;6971;50.028;9.258;2022-07-29T18:27:58;99355.13;;;17.94;100.00
13800;BME280;6971;50.028;9.258;2022-07-29T18:32:59;99359.34;;;17.96;100.00
13800;BME280;6971;50.028;9.258;2022-07-29T18:38:00;99362.66;;;17.67;100.00
13800;BME280;6971;50.028;9.258;2022-07-29T18:43:01;99370.09;;;17.64;100.00
13800;BME280;6971;50.028;9.258;2022-07-29T18:48:03;99377.88;;;17.55;100.00
13800;BME280;6971;50.028;9.258;2022-07-29T18:53:04;99382.16;;;17.68;100.00
13800;BME280;6971;50.028;9.258;2022-07-29T18:58:05;99407.59;;;17.51;100.00
13800;BME280;6971;50.028;9.258;2022-07-29T19:03:08;99493.19;;;17.57;100.00
13800;BME280;6971;50.028;9.258;2022-07-29T19:08:09;99468.03;;;17.39;100.00
13800;BME280;6971;50.028;9.258;2022-07-29T19:13:11;99452.81;;;17.29;100.00
13800;BME280;6971;50.028;9.258;2022-07-29T19:18:12;99459.00;;;17.18;100.00
13800;BME280;6971;50.028;9.258;2022-07-29T19:23:14;99439.69;;;17.05;100.00
13800;BME280;6971;50.028;9.258;2022-07-29T19:28:17;99395.72;;;16.99;100.00
13800;BME280;6971;50.028;9.258;2022-07-29T19:33:19;99372.22;;;17.27;100.00
13800;BME280;6971;50.028;9.258;2022-07-29T19:38:21;99365.53;;;17.33;100.00
13800;BME280;6971;50.028;9.258;2022-07-29T19:43:23;99388.88;;;17.29;100.00
13800;BME280;6971;50.028;9.258;2022-07-29T19:48:24;99395.50;;;17.14;100.00
13800;BME280;6971;50.028;9.258;2022-07-29T19:53:26;99388.03;;;16.96;100.00
13800;BME280;6971;50.028;9.258;2022-07-29T19:58:26;99393.81;;;16.90;100.00
13800;BME280;6971;50.028;9.258;2022-07-29T20:03:28;99416.13;;;16.77;100.00
13800;BME280;6971;50.028;9.258;2022-07-29T20:08:29;99431.47;;;16.74;100.00
13800;BME280;6971;50.028;9.258;2022-07-29T20:13:31;99440.94;;;16.55;100.00
13800;BME280;6971;50.028;9.258;2022-07-29T20:18:41;99448.19;;;16.41;100.00
13800;BME280;6971;50.028;9.258;2022-07-29T20:23:42;99465.22;;;16.39;100.00
13800;BME280;6971;50.028;9.258;2022-07-29T20:28:43;99468.84;;;16.38;100.00
13800;BME280;6971;50.028;9.258;2022-07-29T20:33:45;99470.97;;;16.10;100.00
13800;BME280;6971;50.028;9.258;2022-07-29T20:38:46;99476.78;;;16.15;100.00
13800;BME280;6971;50.028;9.258;2022-07-29T20:44:06;99476.91;;;16.13;100.00
13800;BME280;6971;50.028;9.258;2022-07-29T20:49:07;99471.22;;;16.18;100.00
13800;BME280;6971;50.028;9.258;2022-07-29T20:54:08;99460.50;;;16.31;100.00
13800;BME280;6971;50.028;9.258;2022-07-29T20:59:09;99451.44;;;16.34;100.00
13800;BME280;6971;50.028;9.258;2022-07-29T21:04:10;99456.03;;;16.31;100.00
13800;BME280;6971;50.028;9.258;2022-07-29T21:09:11;99458.06;;;16.16;100.00
13800;BME280;6971;50.028;9.258;2022-07-29T21:14:12;99452.41;;;16.21;100.00
13800;BME280;6971;50.028;9.258;2022-07-29T21:19:25;99451.41;;;16.11;100.00
13800;BME280;6971;50.028;9.258;2022-07-29T21:24:26;99448.31;;;15.92;100.00
13800;BME280;6971;50.028;9.258;2022-07-29T21:29:28;99450.00;;;15.93;100.00
13800;BME280;6971;50.028;9.258;2022-07-29T21:34:29;99436.06;;;15.78;100.00
13800;BME280;6971;50.028;9.258;2022-07-29T21:39:30;99434.16;;;15.81;100.00
13800;BME280;6971;50.028;9.258;2022-07-29T21:44:30;99440.41;;;15.68;100.00
13800;BME280;6971;50.028;9.258;2022-07-29T21:54:41;99450.69;;;15.48;100.00
13800;BME280;6971;50.028;9.258;2022-07-29T21:59:43;99463.97;;;15.48;100.00
13800;BME280;6971;50.028;9.258;2022-07-29T22:04:44;99457.63;;;15.26;100.00
13800;BME280;6971;50.028;9.258;2022-07-29T22:09:45;99451.06;;;15.19;100.00
13800;BME280;6971;50.028;9.258;2022-07-29T22:14:46;99469.94;;;15.27;100.00
13800;BME280;6971;50.028;9.258;2022-07-29T22:19:47;99459.13;;;15.42;100.00
13800;BME280;6971;50.028;9.258;2022-07-29T22:24:48;99477.72;;;15.42;100.00
13800;BME280;6971;50.028;9.258;2022-07-29T22:29:49;99470.72;;;15.41;100.00
13800;BME280;6971;50.028;9.258;2022-07-29T22:34:49;99469.03;;;15.40;100.00
13800;BME280;6971;50.028;9.258;2022-07-29T22:39:50;99452.06;;;15.30;100.00
13800;BME280;6971;50.028;9.258;2022-07-29T22:44:51;99446.25;;;15.24;100.00
13800;BME280;6971;50.028;9.258;2022-07-29T22:49:52;99439.19;;;15.12;100.00
13800;BME280;6971;50.028;9.258;2022-07-29T22:54:53;99427.09;;;15.08;100.00
13800;BME280;6971;50.028;9.258;2022-07-29T22:59:54;99430.53;;;14.97;100.00
13800;BME280;6971;50.028;9.258;2022-07-29T23:04:55;99441.69;;;14.89;100.00
13800;BME280;6971;50.028;9.258;2022-07-29T23:09:57;99439.50;;;14.83;100.00
13800;BME280;6971;50.028;9.258;2022-07-29T23:14:58;99440.94;;;14.74;100.00
13800;BME280;6971;50.028;9.258;2022-07-29T23:19:59;99431.00;;;14.65;100.00
13800;BME280;6971;50.028;9.258;2022-07-29T23:24:59;99428.91;;;14.57;100.00
13800;BME280;6971;50.028;9.258;2022-07-29T23:30:00;99440.56;;;14.54;100.00
13800;BME280;6971;50.028;9.258;2022-07-29T23:35:02;99438.03;;;14.53;100.00
13800;BME280;6971;50.028;9.258;2022-07-29T23:40:05;99447.16;;;14.48;100.00
13800;BME280;6971;50.028;9.258;2022-07-29T23:45:06;99456.28;;;14.44;100.00
13800;BME280;6971;50.028;9.258;2022-07-29T23:50:08;99446.75;;;14.42;100.00
13800;BME280;6971;50.028;9.258;2022-07-29T23:55:11;99451.53;;;14.36;100.00
